GB-0225 weather

Stoodleigh Barton Private Airstrip
England, United Kingdom

Public forecast

Using degrees Celsius for public forecast. Weather courtesy of forecast.io.

METAR (pilot weather report)

Closest report is Exeter International Airport, 14.1 nm (26.1 km) SSE. Retrieved 2019/07/21 20:20 UTC (0 seconds ago):

EGTE 212020Z 20011KT 9999 BKN020 19/15 Q1021

TAF (pilot weather forecast)

Forecast is more than 12 hours old.

Closest forecast is Exeter International Airport, 14.1 nm (26.1 km) SSE. Retrieved 2012/04/19 12:15 UTC (7 years ago):

TAF TAF EGTE 191401Z 1912/1924 31016KT 9999 SCT030 SCT035 PROB40 TEMPO 1915/1918 7000 SHRA BKN014